createdAt,value
2017-08-15T00:00:11.593Z,68.9
2017-08-15T00:01:12.410Z,69.4
2017-08-15T00:02:13.193Z,69.9
2017-08-15T00:03:13.933Z,69.2
2017-08-15T00:04:14.754Z,69.2
2017-08-15T00:05:15.772Z,68.7
2017-08-15T00:06:16.510Z,68.5
2017-08-15T00:07:17.252Z,69.0
2017-08-15T00:08:18.006Z,69.3
2017-08-15T00:09:18.794Z,68.7
2017-08-15T00:10:19.785Z,68.5
2017-08-15T00:11:20.515Z,69.8
2017-08-15T00:12:21.332Z,68.9
2017-08-15T00:13:22.076Z,68.4
2017-08-15T00:14:22.861Z,68.6
2017-08-15T00:15:23.803Z,68.8
2017-08-15T00:16:24.560Z,68.5
2017-08-15T00:17:25.272Z,69.2
2017-08-15T00:18:26.018Z,69.6
2017-08-15T00:19:26.748Z,69.3
2017-08-15T00:20:27.554Z,69.7
2017-08-15T00:21:28.291Z,70.1
2017-08-15T00:22:29.284Z,69.9
2017-08-15T00:23:30.103Z,70.9
2017-08-15T00:24:30.930Z,70.3
2017-08-15T00:25:31.679Z,70.8
2017-08-15T00:26:32.475Z,71.1
2017-08-15T00:27:33.525Z,72.1
2017-08-15T00:28:34.265Z,71.4
2017-08-15T00:29:35.057Z,71.4
2017-08-15T00:30:35.843Z,71.5
2017-08-15T00:31:36.585Z,70.8
2017-08-15T00:32:37.524Z,71.8
2017-08-15T00:33:38.322Z,70.7
2017-08-15T00:34:39.058Z,70.8
2017-08-15T00:35:39.882Z,69.7
2017-08-15T00:36:40.683Z,69.4
2017-08-15T00:37:41.837Z,70.3
2017-08-15T00:38:42.573Z,70.7
2017-08-15T00:39:43.382Z,70.8
2017-08-15T00:40:44.120Z,70.1
2017-08-15T00:41:44.859Z,70.4
2017-08-15T00:42:45.928Z,70.2
2017-08-15T00:43:46.672Z,70.3
2017-08-15T00:44:47.481Z,69.8
2017-08-15T00:45:48.232Z,69.3
2017-08-15T00:46:48.971Z,71.0
2017-08-15T00:47:50.078Z,70.6
2017-08-15T00:48:50.770Z,70.8
2017-08-15T00:49:51.507Z,71.1
2017-08-15T00:50:52.262Z,70.7
2017-08-15T00:51:52.953Z,69.8
2017-08-15T00:52:53.896Z,70.1
2017-08-15T00:53:54.602Z,68.5
2017-08-15T00:54:55.343Z,68.5
2017-08-15T00:55:56.082Z,69.6
2017-08-15T00:56:56.810Z,69.4
2017-08-15T00:57:57.954Z,70.8
2017-08-15T00:58:58.760Z,69.0
2017-08-15T00:59:59.490Z,68.2
2017-08-15T01:01:00.240Z,69.0
2017-08-15T01:02:01.035Z,68.4
2017-08-15T01:03:01.831Z,67.9
2017-08-15T01:04:03.055Z,68.6
2017-08-15T01:05:03.796Z,69.5
2017-08-15T01:06:04.603Z,69.7
2017-08-15T01:07:05.392Z,68.1
2017-08-15T01:08:06.120Z,68.6
2017-08-15T01:09:07.062Z,69.3
2017-08-15T01:10:07.801Z,69.4
2017-08-15T01:11:08.542Z,69.8
2017-08-15T01:12:09.382Z,70.5
2017-08-15T01:13:10.175Z,70.7
2017-08-15T01:14:10.909Z,71.0
2017-08-15T01:15:11.660Z,71.7
2017-08-15T01:16:12.740Z,70.3
2017-08-15T01:17:13.475Z,69.8
2017-08-15T01:18:14.283Z,69.6
2017-08-15T01:19:15.081Z,71.5
2017-08-15T01:20:15.811Z,71.0
2017-08-15T01:21:16.791Z,71.0
2017-08-15T01:22:17.521Z,71.0
2017-08-15T01:23:18.245Z,71.3
2017-08-15T01:24:18.989Z,71.3
2017-08-15T01:25:19.786Z,71.4
2017-08-15T01:26:20.819Z,71.9
2017-08-15T01:27:21.657Z,71.6
2017-08-15T01:28:22.425Z,72.0
2017-08-15T01:29:23.243Z,74.2
2017-08-15T01:30:24.047Z,74.0
2017-08-15T01:31:25.162Z,73.0
2017-08-15T01:32:25.981Z,73.2
2017-08-15T01:33:26.712Z,73.3
2017-08-15T01:34:27.493Z,72.9
2017-08-15T01:35:28.191Z,71.8
2017-08-15T01:36:29.274Z,72.5
2017-08-15T01:37:30.069Z,74.5
2017-08-15T01:38:30.795Z,76.0
2017-08-15T01:39:31.521Z,74.3
2017-08-15T01:40:32.252Z,74.5
2017-08-15T01:41:33.371Z,73.1
2017-08-15T01:42:34.115Z,72.8
2017-08-15T01:43:34.865Z,75.8
2017-08-15T01:44:35.644Z,77.0
2017-08-15T01:45:36.388Z,75.8
2017-08-15T01:46:37.635Z,76.3
2017-08-15T01:47:38.452Z,74.2
2017-08-15T01:48:39.274Z,71.1
2017-08-15T01:49:40.071Z,70.9
2017-08-15T01:50:40.818Z,70.8
2017-08-15T01:51:41.631Z,70.9
2017-08-15T01:52:42.364Z,71.5
2017-08-15T01:53:43.119Z,71.0
2017-08-15T01:54:44.162Z,70.5
2017-08-15T01:55:44.896Z,70.4
2017-08-15T01:56:45.621Z,71.2
2017-08-15T01:57:46.367Z,73.1
2017-08-15T01:58:47.160Z,74.3
2017-08-15T01:59:48.199Z,73.4
2017-08-15T02:00:48.930Z,72.1
2017-08-15T02:01:49.671Z,72.6
2017-08-15T02:02:50.406Z,75.7
2017-08-15T02:03:51.149Z,75.2
2017-08-15T02:04:52.289Z,74.5
2017-08-15T02:05:53.029Z,73.9
2017-08-15T02:06:53.796Z,73.8
2017-08-15T02:07:54.530Z,74.3
2017-08-15T02:08:55.263Z,74.1
2017-08-15T02:09:56.529Z,74.8
2017-08-15T02:10:57.261Z,73.8
2017-08-15T02:11:57.991Z,74.8
2017-08-15T02:12:58.740Z,75.4
2017-08-15T02:13:59.474Z,75.8
2017-08-15T02:15:00.628Z,75.8
2017-08-15T02:16:01.410Z,75.8
2017-08-15T02:17:02.154Z,75.8
2017-08-15T02:18:02.893Z,76.6
2017-08-15T02:19:03.622Z,76.0
2017-08-15T02:20:04.730Z,76.2
2017-08-15T02:21:05.471Z,75.8
2017-08-15T02:22:06.201Z,75.8
2017-08-15T02:23:06.943Z,76.4
2017-08-15T02:24:07.754Z,76.0
2017-08-15T02:25:08.579Z,75.4
2017-08-15T02:26:09.624Z,76.9
2017-08-15T02:27:10.364Z,76.8
2017-08-15T02:28:11.149Z,78.0
2017-08-15T02:29:11.882Z,78.4
2017-08-15T02:30:12.694Z,78.1
2017-08-15T02:31:13.862Z,77.9
2017-08-15T02:32:14.683Z,78.3
2017-08-15T02:33:15.475Z,78.1
2017-08-15T02:34:16.291Z,77.9
2017-08-15T02:35:17.033Z,78.4
2017-08-15T02:36:18.031Z,78.2
2017-08-15T02:37:18.773Z,80.3
2017-08-15T02:38:19.593Z,80.2
2017-08-15T02:39:20.330Z,80.1
2017-08-15T02:40:21.063Z,80.3
2017-08-15T02:41:22.110Z,80.3
2017-08-15T02:42:22.842Z,79.7
2017-08-15T02:43:23.571Z,80.1
2017-08-15T02:44:24.299Z,80.0
2017-08-15T02:45:25.042Z,81.1
2017-08-15T02:46:26.301Z,81.7
2017-08-15T02:47:27.068Z,83.1
2017-08-15T02:48:27.855Z,81.2
2017-08-15T02:49:28.681Z,81.7
2017-08-15T02:50:29.411Z,82.2
2017-08-15T02:51:30.462Z,79.9
2017-08-15T02:52:31.264Z,81.7
2017-08-15T02:53:31.995Z,82.5
2017-08-15T02:54:32.800Z,80.7
2017-08-15T02:55:33.542Z,80.0
2017-08-15T02:56:34.350Z,81.0
2017-08-15T02:57:35.431Z,80.7
2017-08-15T02:58:36.168Z,82.1
2017-08-15T02:59:36.913Z,81.8
2017-08-15T03:00:37.722Z,82.4
2017-08-15T03:01:38.560Z,82.3
2017-08-15T03:02:39.501Z,82.4
2017-08-15T03:03:40.249Z,82.3
2017-08-15T03:04:41.074Z,82.6
2017-08-15T03:05:41.850Z,83.5
2017-08-15T03:06:42.666Z,83.7
2017-08-15T03:07:43.730Z,85.4
2017-08-15T03:08:44.482Z,85.3
2017-08-15T03:09:45.281Z,85.0
2017-08-15T03:10:46.020Z,85.7
2017-08-15T03:11:46.750Z,85.0
2017-08-15T03:12:47.490Z,85.8
2017-08-15T03:13:48.530Z,85.7
2017-08-15T03:14:49.270Z,85.8
2017-08-15T03:15:50.010Z,85.4
2017-08-15T03:16:50.750Z,86.2
2017-08-15T03:17:51.486Z,86.3
2017-08-15T03:18:52.577Z,87.2
2017-08-15T03:19:53.343Z,87.5
2017-08-15T03:20:54.157Z,87.7
2017-08-15T03:21:54.900Z,87.5
2017-08-15T03:22:55.701Z,87.3
2017-08-15T03:23:56.801Z,87.5
2017-08-15T03:24:57.509Z,87.8
2017-08-15T03:25:58.250Z,88.3
2017-08-15T03:26:59.000Z,88.3
2017-08-15T03:27:59.733Z,87.6
2017-08-15T03:29:00.466Z,87.7
2017-08-15T03:30:01.543Z,87.5
2017-08-15T03:31:02.273Z,87.6
2017-08-15T03:32:03.076Z,87.9
2017-08-15T03:33:03.894Z,88.5
2017-08-15T03:34:04.639Z,88.3
2017-08-15T03:35:06.982Z,88.7
2017-08-15T03:36:09.214Z,88.6
2017-08-15T03:38:11.129Z,88.8
2017-08-15T03:39:11.861Z,88.9
2017-08-15T03:40:12.925Z,89.7
2017-08-15T03:41:13.712Z,89.2
2017-08-15T03:42:14.547Z,90.3
2017-08-15T03:43:15.342Z,89.6
2017-08-15T03:44:16.150Z,90.1
2017-08-15T03:45:17.230Z,90.4
2017-08-15T03:46:17.964Z,90.6
2017-08-15T03:47:18.764Z,90.0
2017-08-15T03:48:19.539Z,90.6
2017-08-15T03:49:20.273Z,90.7
2017-08-15T03:50:21.013Z,90.9
2017-08-15T03:51:21.752Z,91.0
2017-08-15T03:52:22.580Z,91.7
2017-08-15T03:53:23.339Z,91.6
2017-08-15T03:54:24.453Z,91.6
2017-08-15T03:55:25.245Z,91.4
2017-08-15T03:56:25.990Z,91.0
2017-08-15T03:57:26.813Z,90.8
2017-08-15T03:58:27.600Z,91.4
2017-08-15T03:59:28.843Z,91.4
2017-08-15T04:00:29.660Z,90.9
2017-08-15T04:01:30.470Z,91.8
2017-08-15T04:02:31.221Z,91.4
2017-08-15T04:03:32.758Z,91.4
2017-08-15T04:04:34.554Z,88.8
2017-08-15T04:05:35.783Z,89.9
2017-08-15T04:06:36.597Z,90.0
2017-08-15T04:08:40.628Z,90.4
2017-08-15T04:09:41.169Z,90.3
2017-08-15T04:10:41.900Z,91.1
2017-08-15T04:11:42.642Z,91.2
2017-08-15T04:12:43.451Z,91.8
2017-08-15T04:13:44.180Z,91.7
2017-08-15T04:14:45.270Z,91.9
2017-08-15T04:15:46.093Z,92.0
2017-08-15T04:16:46.871Z,92.1
2017-08-15T04:17:49.116Z,92.3
2017-08-15T04:18:50.117Z,92.5
2017-08-15T04:19:51.499Z,92.2
2017-08-15T04:20:52.237Z,92.1
2017-08-15T04:21:52.982Z,92.5
2017-08-15T04:22:53.730Z,92.4
2017-08-15T04:23:54.534Z,92.8
2017-08-15T04:24:55.280Z,93.6
2017-08-15T04:25:56.059Z,93.9
2017-08-15T04:26:56.816Z,94.3
2017-08-15T04:27:57.620Z,94.4
2017-08-15T04:28:58.440Z,94.3
2017-08-15T04:29:59.607Z,94.2
2017-08-15T04:31:00.342Z,95.0
2017-08-15T04:32:01.164Z,95.4
2017-08-15T04:33:01.900Z,94.8
2017-08-15T04:34:02.663Z,94.6
2017-08-15T04:35:03.872Z,95.3
2017-08-15T04:36:04.700Z,96.1
2017-08-15T04:37:05.519Z,95.9
2017-08-15T04:38:06.258Z,96.6
2017-08-15T04:39:06.963Z,97.3
2017-08-15T04:40:07.991Z,97.9
2017-08-15T04:41:08.813Z,96.9
2017-08-15T04:42:09.579Z,96.8
2017-08-15T04:43:10.317Z,97.0
2017-08-15T04:44:11.122Z,96.9
2017-08-15T04:45:12.256Z,97.1
2017-08-15T04:46:12.994Z,97.8
2017-08-15T04:47:13.740Z,97.5
2017-08-15T04:48:14.462Z,98.0
2017-08-15T04:49:15.217Z,97.8
2017-08-15T04:50:16.009Z,97.8
2017-08-15T04:51:16.750Z,98.1
2017-08-15T04:52:17.780Z,98.7
2017-08-15T04:53:18.520Z,98.1
2017-08-15T04:54:19.261Z,98.9
2017-08-15T04:55:19.991Z,99.0
2017-08-15T04:56:20.729Z,99.4
2017-08-15T04:57:21.773Z,99.0
2017-08-15T04:58:22.528Z,98.6
2017-08-15T04:59:23.300Z,99.4
2017-08-15T05:00:24.121Z,99.8
2017-08-15T05:01:24.963Z,99.4
2017-08-15T05:02:26.005Z,99.4
2017-08-15T05:03:26.712Z,99.7
2017-08-15T05:04:27.510Z,100.0
2017-08-15T05:05:28.249Z,99.9
2017-08-15T05:06:28.999Z,100.0
2017-08-15T05:07:29.748Z,100.0
2017-08-15T05:08:30.490Z,100.0
2017-08-15T05:09:31.322Z,100.0
2017-08-15T05:10:32.484Z,100.0
2017-08-15T05:11:33.309Z,100.0
2017-08-15T05:12:34.050Z,100.0
2017-08-15T05:13:34.872Z,100.0
2017-08-15T05:14:35.715Z,100.0
2017-08-15T05:15:36.849Z,100.0
2017-08-15T05:16:37.579Z,100.0
2017-08-15T05:17:38.317Z,100.0
2017-08-15T05:18:39.061Z,100.0
2017-08-15T05:19:39.892Z,100.0
2017-08-15T05:20:40.890Z,100.0
2017-08-15T05:21:41.709Z,100.0
2017-08-15T05:22:42.531Z,100.0
2017-08-15T05:23:43.320Z,100.0
2017-08-15T05:24:44.066Z,100.0
2017-08-15T05:25:45.300Z,100.0
2017-08-15T05:26:46.126Z,100.0
2017-08-15T05:27:46.924Z,100.0
2017-08-15T05:28:47.668Z,100.0
2017-08-15T05:29:48.452Z,98.4
2017-08-15T05:30:49.548Z,97.9
2017-08-15T05:31:50.293Z,95.2
2017-08-15T05:32:51.087Z,94.4
2017-08-15T05:33:51.828Z,93.3
2017-08-15T05:34:52.569Z,92.4
2017-08-15T05:35:53.325Z,91.4
2017-08-15T05:36:54.059Z,90.7
2017-08-15T05:37:54.796Z,88.8
2017-08-15T05:38:55.539Z,88.3
2017-08-15T05:39:56.349Z,88.5
2017-08-15T05:40:57.183Z,88.4
2017-08-15T05:41:57.941Z,87.8
2017-08-15T05:42:59.153Z,87.9
2017-08-15T05:43:59.971Z,87.6
2017-08-15T05:45:00.710Z,87.5
2017-08-15T05:46:01.523Z,87.4
2017-08-15T05:47:02.262Z,87.0
2017-08-15T05:48:03.332Z,86.7
2017-08-15T05:49:04.157Z,86.6
2017-08-15T05:50:04.899Z,85.5
2017-08-15T05:51:05.637Z,85.1
2017-08-15T05:52:06.481Z,85.3
2017-08-15T05:53:07.560Z,84.5
2017-08-15T05:54:08.299Z,84.1
2017-08-15T05:55:09.041Z,83.1
2017-08-15T05:56:09.782Z,83.6
2017-08-15T05:57:10.524Z,84.3
2017-08-15T05:58:11.621Z,84.6
2017-08-15T05:59:12.447Z,84.8
2017-08-15T06:00:13.191Z,84.5
2017-08-15T06:01:14.010Z,84.7
2017-08-15T06:02:14.749Z,84.7
2017-08-15T06:03:15.788Z,84.7
2017-08-15T06:04:16.537Z,83.7
2017-08-15T06:05:17.279Z,83.6
2017-08-15T06:06:18.022Z,82.8
2017-08-15T06:07:18.852Z,83.2
2017-08-15T06:08:19.648Z,82.2
2017-08-15T06:09:20.389Z,81.8
2017-08-15T06:10:21.372Z,81.7
2017-08-15T06:11:22.190Z,82.6
2017-08-15T06:12:22.929Z,82.8
2017-08-15T06:13:23.680Z,83.4
2017-08-15T06:14:24.494Z,84.1
2017-08-15T06:15:25.656Z,83.4
2017-08-15T06:16:26.390Z,83.7
2017-08-15T06:17:27.213Z,84.5
2017-08-15T06:18:28.020Z,84.5
2017-08-15T06:19:28.769Z,84.3
2017-08-15T06:20:29.509Z,84.7
2017-08-15T06:21:30.260Z,84.1
2017-08-15T06:22:31.074Z,84.2
2017-08-15T06:23:31.815Z,84.6
2017-08-15T06:24:32.619Z,84.6
2017-08-15T06:25:33.569Z,84.5
2017-08-15T06:26:34.316Z,83.9
2017-08-15T06:27:35.066Z,84.8
2017-08-15T06:28:35.809Z,84.3
2017-08-15T06:29:36.618Z,84.4
2017-08-15T06:30:37.623Z,83.9
2017-08-15T06:31:38.417Z,83.9
2017-08-15T06:32:39.164Z,83.8
2017-08-15T06:33:39.986Z,84.2
2017-08-15T06:34:40.803Z,85.2
2017-08-15T06:35:41.948Z,84.4
2017-08-15T06:36:42.700Z,84.7
2017-08-15T06:37:43.519Z,84.6
2017-08-15T06:38:44.269Z,84.9
2017-08-15T06:39:45.009Z,84.8
2017-08-15T06:40:45.966Z,84.7
2017-08-15T06:41:46.693Z,84.9
2017-08-15T06:42:47.460Z,85.5
2017-08-15T06:43:48.193Z,85.0
2017-08-15T06:44:48.937Z,84.4
2017-08-15T06:45:50.029Z,85.1
2017-08-15T06:46:50.782Z,83.9
2017-08-15T06:47:51.579Z,83.4
2017-08-15T06:48:52.331Z,84.4
2017-08-15T06:49:53.130Z,85.0
2017-08-15T06:50:53.899Z,84.3
2017-08-15T06:51:54.687Z,84.2
2017-08-15T06:52:55.427Z,83.0
2017-08-15T06:53:56.176Z,83.3
2017-08-15T06:54:57.241Z,83.4
2017-08-15T06:55:58.049Z,83.5
2017-08-15T06:56:58.798Z,83.6
2017-08-15T06:57:59.619Z,83.4
2017-08-15T06:59:00.379Z,83.0
2017-08-15T07:00:01.542Z,83.1
2017-08-15T07:01:02.287Z,82.7
2017-08-15T07:02:03.020Z,81.6
2017-08-15T07:03:03.766Z,80.8
2017-08-15T07:04:05.141Z,80.1
2017-08-15T07:06:21.828Z,79.8
2017-08-15T07:07:22.587Z,79.5
2017-08-15T07:08:23.387Z,80.2
2017-08-15T07:09:24.131Z,80.7
2017-08-15T07:10:24.969Z,79.9
2017-08-15T07:11:26.005Z,79.6
2017-08-15T07:12:26.749Z,78.1
2017-08-15T07:13:27.494Z,77.7
2017-08-15T07:14:28.317Z,78.3
2017-08-15T07:15:29.104Z,77.3
2017-08-15T07:16:30.270Z,74.1
2017-08-15T07:17:31.078Z,74.7
2017-08-15T07:18:31.954Z,75.8
2017-08-15T07:19:32.764Z,72.7
2017-08-15T07:20:33.507Z,73.0
2017-08-15T07:21:34.683Z,72.1
2017-08-15T07:22:35.469Z,73.0
2017-08-15T07:23:36.202Z,73.9
2017-08-15T07:24:36.900Z,73.9
2017-08-15T07:25:37.731Z,73.6
2017-08-15T07:26:38.890Z,73.3
2017-08-15T07:27:39.731Z,72.3
2017-08-15T07:28:40.470Z,71.6
2017-08-15T07:29:41.222Z,71.1
2017-08-15T07:30:42.038Z,71.4
2017-08-15T07:31:43.082Z,67.7
2017-08-15T07:32:43.839Z,65.8
2017-08-15T07:33:44.586Z,70.2
2017-08-15T07:34:45.322Z,71.1
2017-08-15T07:35:46.150Z,70.1
2017-08-15T07:36:47.349Z,70.4
2017-08-15T07:37:48.108Z,68.5
2017-08-15T07:38:48.932Z,68.2
2017-08-15T07:39:49.748Z,64.2
2017-08-15T07:40:50.496Z,65.9
2017-08-15T07:41:51.500Z,64.2
2017-08-15T07:42:52.229Z,64.2
2017-08-15T07:43:52.971Z,64.6
2017-08-15T07:44:53.799Z,64.3
2017-08-15T07:45:54.599Z,64.4
2017-08-15T07:46:55.614Z,64.4
2017-08-15T07:47:56.414Z,63.0
2017-08-15T07:48:57.228Z,61.8
2017-08-15T07:49:58.004Z,61.3
2017-08-15T07:50:58.800Z,57.7
2017-08-15T07:51:59.990Z,57.8
2017-08-15T07:53:00.809Z,57.7
2017-08-15T07:54:01.567Z,57.1
2017-08-15T07:55:02.378Z,56.2
2017-08-15T07:56:03.123Z,57.1
2017-08-15T07:57:04.390Z,58.7
2017-08-15T07:58:05.099Z,58.9
2017-08-15T07:59:05.849Z,57.9
2017-08-15T08:00:06.608Z,58.2
2017-08-15T08:01:07.425Z,57.1
2017-08-15T08:02:08.589Z,55.4
2017-08-15T08:03:09.338Z,54.6
2017-08-15T08:04:10.092Z,58.4
2017-08-15T08:05:10.838Z,59.8
2017-08-15T08:06:11.582Z,55.4
2017-08-15T08:07:12.637Z,55.9
2017-08-15T08:08:13.449Z,55.4
2017-08-15T08:09:14.197Z,55.5
2017-08-15T08:10:14.939Z,56.1
2017-08-15T08:11:15.762Z,54.7
2017-08-15T08:12:16.868Z,55.3
2017-08-15T08:13:17.670Z,56.9
2017-08-15T08:14:18.435Z,55.5
2017-08-15T08:15:19.185Z,55.8
2017-08-15T08:16:19.937Z,57.3
2017-08-15T08:17:20.721Z,57.7
2017-08-15T08:18:21.471Z,55.7
2017-08-15T08:19:22.588Z,55.5
2017-08-15T08:20:23.343Z,55.4
2017-08-15T08:21:24.158Z,54.7
2017-08-15T08:22:24.977Z,55.2
2017-08-15T08:23:25.790Z,54.4
2017-08-15T08:24:26.889Z,54.9
2017-08-15T08:25:27.638Z,55.4
2017-08-15T08:26:28.394Z,56.9
2017-08-15T08:27:29.219Z,57.4
2017-08-15T08:28:29.972Z,55.3
2017-08-15T08:29:31.134Z,54.9
2017-08-15T08:30:31.887Z,52.9
2017-08-15T08:31:32.701Z,51.4
2017-08-15T08:32:33.527Z,51.6
2017-08-15T08:33:34.360Z,51.5
2017-08-15T08:34:35.407Z,54.2
2017-08-15T08:35:36.161Z,54.7
2017-08-15T08:36:36.916Z,54.0
2017-08-15T08:37:37.717Z,55.0
2017-08-15T08:38:38.531Z,55.8
2017-08-15T08:39:39.769Z,55.9
2017-08-15T08:40:40.619Z,54.0
2017-08-15T08:41:41.368Z,54.6
2017-08-15T08:42:42.123Z,54.2
2017-08-15T08:43:42.873Z,57.6
2017-08-15T08:44:43.971Z,54.3
2017-08-15T08:45:44.712Z,55.1
2017-08-15T08:46:45.519Z,54.1
2017-08-15T08:47:46.268Z,53.7
2017-08-15T08:48:46.999Z,54.1
2017-08-15T08:49:48.059Z,51.6
2017-08-15T08:50:48.854Z,50.2
2017-08-15T08:51:49.599Z,51.9
2017-08-15T08:52:50.358Z,53.9
2017-08-15T08:53:51.113Z,52.3
2017-08-15T08:54:52.310Z,52.4
2017-08-15T08:55:53.059Z,50.2
2017-08-15T08:56:53.805Z,50.7
2017-08-15T08:57:54.627Z,49.6
2017-08-15T08:58:55.457Z,50.0
2017-08-15T08:59:56.579Z,52.3
2017-08-15T09:00:57.329Z,54.5
2017-08-15T09:01:58.090Z,53.1
2017-08-15T09:02:58.894Z,50.5
2017-08-15T09:03:59.640Z,50.4
2017-08-15T09:05:00.767Z,50.3
2017-08-15T09:06:01.511Z,50.7
2017-08-15T09:07:02.350Z,49.3
2017-08-15T09:08:03.203Z,48.2
2017-08-15T09:09:03.992Z,47.1
2017-08-15T09:10:05.067Z,48.4
2017-08-15T09:11:05.868Z,49.4
2017-08-15T09:12:06.619Z,50.3
2017-08-15T09:13:07.430Z,50.2
2017-08-15T09:14:08.178Z,50.6
2017-08-15T09:15:09.232Z,50.0
2017-08-15T09:16:10.060Z,47.8
2017-08-15T09:17:10.877Z,48.7
2017-08-15T09:18:11.631Z,49.3
2017-08-15T09:19:12.381Z,50.4
2017-08-15T09:20:13.596Z,50.6
2017-08-15T09:21:14.349Z,50.1
2017-08-15T09:22:15.102Z,50.0
2017-08-15T09:23:15.855Z,50.6
2017-08-15T09:24:16.598Z,51.2
2017-08-15T09:25:17.349Z,52.8
2017-08-15T09:26:18.405Z,51.6
2017-08-15T09:27:19.236Z,52.2
2017-08-15T09:28:20.047Z,51.6
2017-08-15T09:29:20.810Z,50.5
2017-08-15T09:30:21.559Z,51.7
2017-08-15T09:31:22.682Z,52.6
2017-08-15T09:32:23.454Z,52.9
2017-08-15T09:33:24.179Z,51.7
2017-08-15T09:34:24.929Z,52.7
2017-08-15T09:35:25.680Z,51.3
2017-08-15T09:36:26.702Z,51.8
2017-08-15T09:37:27.450Z,51.1
2017-08-15T09:38:28.274Z,51.3
2017-08-15T09:39:29.020Z,51.5
2017-08-15T09:40:29.785Z,52.2
2017-08-15T09:41:30.871Z,53.8
2017-08-15T09:42:31.677Z,53.5
2017-08-15T09:43:32.483Z,54.3
2017-08-15T09:44:33.271Z,54.3
2017-08-15T09:45:34.039Z,54.2
2017-08-15T09:46:35.279Z,54.6
2017-08-15T09:47:36.023Z,54.3
2017-08-15T09:48:36.771Z,54.7
2017-08-15T09:49:37.520Z,55.1
2017-08-15T09:50:38.341Z,53.7
2017-08-15T09:51:39.390Z,53.0
2017-08-15T09:52:40.139Z,54.3
2017-08-15T09:53:40.959Z,52.4
2017-08-15T09:54:41.716Z,52.6
2017-08-15T09:55:42.483Z,53.3
2017-08-15T09:56:43.610Z,52.3
2017-08-15T09:57:44.365Z,54.2
2017-08-15T09:58:45.164Z,50.7
2017-08-15T09:59:45.917Z,51.6
2017-08-15T10:00:46.647Z,52.8
2017-08-15T10:01:47.829Z,52.8
2017-08-15T10:02:48.570Z,52.8
2017-08-15T10:03:49.400Z,52.1
2017-08-15T10:04:50.211Z,51.3
2017-08-15T10:05:50.953Z,50.0
2017-08-15T10:06:52.064Z,49.9
2017-08-15T10:07:52.796Z,51.4
2017-08-15T10:08:53.540Z,51.3
2017-08-15T10:09:54.294Z,51.3
2017-08-15T10:10:55.043Z,53.0
2017-08-15T10:11:56.097Z,52.0
2017-08-15T10:12:56.937Z,51.7
2017-08-15T10:13:57.702Z,53.9
2017-08-15T10:14:58.450Z,52.9
2017-08-15T10:15:59.201Z,54.4
2017-08-15T10:17:00.409Z,50.6
2017-08-15T10:18:01.154Z,50.1
2017-08-15T10:19:01.899Z,51.6
2017-08-15T10:20:02.673Z,50.5
2017-08-15T10:21:03.503Z,51.2
2017-08-15T10:22:04.609Z,54.4
2017-08-15T10:23:05.369Z,51.2
2017-08-15T10:24:06.160Z,51.4
2017-08-15T10:25:06.904Z,51.8
2017-08-15T10:26:07.656Z,52.4
2017-08-15T10:27:08.763Z,51.7
2017-08-15T10:28:09.519Z,50.2
2017-08-15T10:29:10.293Z,50.7
2017-08-15T10:30:11.023Z,51.6
2017-08-15T10:31:11.813Z,50.2
2017-08-15T10:32:12.639Z,50.6
2017-08-15T10:33:13.390Z,51.4
2017-08-15T10:34:14.605Z,49.8
2017-08-15T10:35:15.357Z,50.2
2017-08-15T10:36:16.135Z,50.6
2017-08-15T10:37:16.931Z,49.2
2017-08-15T10:38:17.756Z,47.4
2017-08-15T10:39:18.960Z,47.4
2017-08-15T10:40:19.797Z,47.4
2017-08-15T10:41:20.623Z,47.6
2017-08-15T10:42:21.457Z,47.0
2017-08-15T10:43:22.273Z,46.8
2017-08-15T10:44:23.099Z,48.3
2017-08-15T10:45:23.924Z,48.1
2017-08-15T10:46:25.104Z,47.4
2017-08-15T10:47:25.842Z,49.0
2017-08-15T10:48:26.590Z,50.7
2017-08-15T10:49:27.346Z,48.5
2017-08-15T10:50:28.170Z,49.7
2017-08-15T10:51:29.170Z,48.3
2017-08-15T10:52:30.020Z,49.6
2017-08-15T10:53:30.819Z,50.1
2017-08-15T10:54:31.591Z,49.6
2017-08-15T10:55:32.289Z,50.3
2017-08-15T10:56:33.029Z,48.9
2017-08-15T10:57:34.240Z,50.3
2017-08-15T10:58:35.041Z,50.8
2017-08-15T10:59:35.819Z,52.4
2017-08-15T11:01:50.844Z,55.2
2017-08-15T11:02:52.097Z,51.7
2017-08-15T11:03:52.911Z,49.6
2017-08-15T11:04:53.731Z,50.7
2017-08-15T11:05:54.559Z,48.3
2017-08-15T11:06:55.304Z,50.2
2017-08-15T11:07:56.360Z,51.1
2017-08-15T11:08:57.179Z,50.0
2017-08-15T11:09:57.939Z,49.5
2017-08-15T11:10:58.704Z,49.9
2017-08-15T11:11:59.529Z,52.0
2017-08-15T11:13:00.668Z,50.7
2017-08-15T11:14:01.426Z,50.7
2017-08-15T11:15:02.234Z,51.3
2017-08-15T11:16:02.993Z,52.5
2017-08-15T11:17:03.750Z,50.5
2017-08-15T11:18:04.768Z,51.6
2017-08-15T11:19:05.593Z,51.4
2017-08-15T11:20:06.399Z,51.2
2017-08-15T11:21:07.226Z,53.5
2017-08-15T11:22:07.969Z,51.8
2017-08-15T11:23:09.019Z,51.2
2017-08-15T11:24:09.769Z,51.1
2017-08-15T11:25:10.520Z,53.1
2017-08-15T11:26:11.277Z,51.6
2017-08-15T11:27:12.031Z,50.8
2017-08-15T11:28:13.167Z,49.7
2017-08-15T11:29:13.970Z,51.1
2017-08-15T11:30:14.735Z,50.0
2017-08-15T11:31:15.511Z,51.1
2017-08-15T11:32:16.261Z,52.7
2017-08-15T11:33:17.290Z,53.0
2017-08-15T11:34:18.030Z,53.0
2017-08-15T11:35:18.788Z,50.5
2017-08-15T11:36:19.994Z,51.5
2017-08-15T11:37:20.700Z,52.2
2017-08-15T11:38:21.928Z,53.4
2017-08-15T11:39:22.765Z,53.4
2017-08-15T11:40:23.588Z,54.6
2017-08-15T11:41:24.409Z,54.3
2017-08-15T11:42:25.214Z,53.7
2017-08-15T11:43:26.952Z,54.9
2017-08-15T11:44:27.841Z,56.2
2017-08-15T11:45:28.602Z,54.3
2017-08-15T11:46:29.430Z,54.3
2017-08-15T11:47:30.243Z,53.4
2017-08-15T11:48:31.284Z,52.2
2017-08-15T11:49:32.043Z,52.0
2017-08-15T11:50:32.753Z,53.0
2017-08-15T11:51:33.580Z,53.1
2017-08-15T11:52:34.333Z,53.2
2017-08-15T11:53:35.480Z,52.8
2017-08-15T11:54:36.230Z,52.6
2017-08-15T11:55:36.989Z,53.3
2017-08-15T11:56:37.741Z,54.0
2017-08-15T11:57:38.570Z,54.7
2017-08-15T11:58:39.684Z,55.8
2017-08-15T11:59:40.558Z,57.9
2017-08-15T12:00:41.309Z,56.2
2017-08-15T12:01:42.110Z,53.2
2017-08-15T12:02:42.865Z,53.3
2017-08-15T12:03:43.912Z,52.9
2017-08-15T12:04:44.730Z,54.3
2017-08-15T12:05:45.511Z,52.6
2017-08-15T12:06:46.253Z,53.1
2017-08-15T12:07:47.051Z,54.1
2017-08-15T12:08:47.847Z,54.6
2017-08-15T12:09:48.956Z,54.4
2017-08-15T12:10:49.713Z,54.3
2017-08-15T12:11:50.528Z,54.3
2017-08-15T12:12:51.271Z,55.5
2017-08-15T12:13:52.029Z,56.9
2017-08-15T12:14:53.263Z,55.4
2017-08-15T12:15:54.094Z,54.9
2017-08-15T12:16:54.849Z,54.8
2017-08-15T12:17:55.596Z,54.9
2017-08-15T12:18:56.355Z,55.7
2017-08-15T12:19:57.600Z,53.2
2017-08-15T12:20:58.352Z,54.8
2017-08-15T12:21:59.213Z,56.4
2017-08-15T12:23:00.011Z,57.4
2017-08-15T12:24:00.766Z,54.4
2017-08-15T12:25:01.989Z,56.1
2017-08-15T12:26:02.781Z,56.1
2017-08-15T12:27:03.543Z,54.8
2017-08-15T12:28:04.333Z,55.2
2017-08-15T12:29:05.080Z,54.9
2017-08-15T12:30:06.030Z,56.0
2017-08-15T12:31:06.770Z,56.1
2017-08-15T12:32:07.542Z,54.7
2017-08-15T12:33:08.672Z,56.9
2017-08-15T12:34:09.424Z,56.0
2017-08-15T12:35:10.260Z,54.6
2017-08-15T12:36:11.007Z,52.9
2017-08-15T12:37:11.967Z,52.3
2017-08-15T12:38:13.126Z,50.2
2017-08-15T12:39:13.875Z,50.2
2017-08-15T12:40:14.640Z,47.4
2017-08-15T12:41:15.391Z,48.1
2017-08-15T12:42:16.210Z,49.2
2017-08-15T12:43:17.275Z,47.4
2017-08-15T12:44:18.104Z,45.8
2017-08-15T12:45:18.918Z,46.7
2017-08-15T12:46:19.667Z,44.1
2017-08-15T12:47:20.461Z,43.5
2017-08-15T12:48:21.691Z,44.0
2017-08-15T12:49:22.510Z,44.1
2017-08-15T12:50:23.259Z,41.6
2017-08-15T12:51:24.015Z,44.1
2017-08-15T12:52:24.772Z,44.4
2017-08-15T12:53:25.582Z,45.9
2017-08-15T12:54:26.424Z,45.1
2017-08-15T12:55:27.655Z,43.0
2017-08-15T12:56:28.411Z,45.1
2017-08-15T12:57:29.188Z,44.2
2017-08-15T12:58:29.983Z,45.6
2017-08-15T12:59:30.730Z,47.2
2017-08-15T13:00:31.992Z,49.5
2017-08-15T13:01:32.789Z,51.4
2017-08-15T13:02:33.554Z,51.0
2017-08-15T13:03:34.366Z,48.1
2017-08-15T13:04:35.120Z,48.4
2017-08-15T13:05:36.059Z,45.8
2017-08-15T13:06:36.812Z,48.0
2017-08-15T13:07:37.558Z,49.6
2017-08-15T13:08:38.360Z,50.0
2017-08-15T13:09:39.109Z,51.2
2017-08-15T13:10:40.234Z,52.4
2017-08-15T13:11:40.962Z,51.5
2017-08-15T13:12:41.719Z,51.8
2017-08-15T13:13:42.465Z,50.6
2017-08-15T13:14:43.283Z,51.2
2017-08-15T13:15:44.239Z,50.5
2017-08-15T13:16:44.991Z,50.7
2017-08-15T13:17:45.816Z,52.4
2017-08-15T13:18:46.574Z,51.9
2017-08-15T13:19:47.392Z,51.5
2017-08-15T13:20:48.544Z,51.1
2017-08-15T13:21:49.371Z,51.6
2017-08-15T13:22:50.187Z,51.5
2017-08-15T13:23:50.936Z,51.9
2017-08-15T13:24:51.679Z,51.1
2017-08-15T13:25:52.840Z,51.5
2017-08-15T13:26:53.594Z,50.5
2017-08-15T13:27:54.381Z,50.6
2017-08-15T13:28:55.222Z,51.3
2017-08-15T13:29:55.979Z,51.3
2017-08-15T13:30:57.246Z,49.9
2017-08-15T13:31:58.080Z,50.4
2017-08-15T13:32:58.827Z,50.3